Time;durP1;ratioP1;P1;durP2;ratioP2;P2;SDS_P1;SDS_P2;PMS_P1;PMS_P2;Temp;Humidity;BMP_temperature;BMP_pressure;BME280_temperature;BME280_humidity;BME280_pressure;Samples;Min_cycle;Max_cycle;Signal;HPM_P1;HPM_P2
2022/09/18 04:15:13;;;;;;;1.67;1.10;;;;;;;10.18;100.00;100350.19;6051705;23;20526;31
2022/09/18 04:17:39;;;;;;;13.23;1.55;;;;;;;10.19;100.00;100338.53;4930559;29;20050;-72
2022/09/18 04:20:05;;;;;;;2.88;1.40;;;;;;;10.19;100.00;100344.69;4932530;29;20126;-72
2022/09/18 04:22:30;;;;;;;2.33;1.38;;;;;;;10.19;100.00;100349.16;4948409;29;20059;-72
2022/09/18 04:24:56;;;;;;;2.75;1.40;;;;;;;10.21;100.00;100347.16;4932685;29;20461;-72
2022/09/18 04:27:21;;;;;;;2.95;1.65;;;;;;;10.19;100.00;100335.84;4949828;29;20043;-73
2022/09/18 04:29:48;;;;;;;2.78;1.25;;;;;;;10.17;100.00;100335.19;4952103;29;20046;-72
2022/09/18 04:32:16;;;;;;;3.53;1.73;;;;;;;10.19;100.00;100336.69;4951549;29;20458;-73
2022/09/18 04:34:42;;;;;;;3.35;1.42;;;;;;;10.20;100.00;100342.84;4935751;29;20079;-73
2022/09/18 04:37:09;;;;;;;1.53;1.40;;;;;;;10.19;100.00;100341.19;4951702;28;20039;-73
2022/09/18 04:39:35;;;;;;;1.27;1.17;;;;;;;10.17;100.00;100345.81;4955351;29;20334;-73
2022/09/18 04:42:03;;;;;;;3.28;1.40;;;;;;;10.18;100.00;100352.84;4954970;28;20561;-73
2022/09/18 04:44:28;;;;;;;1.42;1.23;;;;;;;10.19;100.00;100343.84;4955134;28;20561;-72
2022/09/18 04:46:55;;;;;;;1.52;1.20;;;;;;;10.22;100.00;100351.47;4955020;28;20047;-73
2022/09/18 04:49:20;;;;;;;2.00;1.23;;;;;;;10.22;100.00;100349.66;4955033;29;20046;-73
2022/09/18 04:51:46;;;;;;;3.80;1.70;;;;;;;10.22;100.00;100339.00;4954708;28;20447;-73
2022/09/18 04:54:14;;;;;;;3.30;1.17;;;;;;;10.20;100.00;100346.34;4955063;29;20062;-72
2022/09/18 04:56:40;;;;;;;1.60;1.30;;;;;;;10.21;100.00;100355.16;4954902;28;20039;-73
2022/09/18 04:59:05;;;;;;;5.00;1.42;;;;;;;10.21;100.00;100345.31;4955258;28;20043;-73
2022/09/18 05:01:33;;;;;;;1.20;1.10;;;;;;;10.22;100.00;100354.16;4955030;28;20035;-71
2022/09/18 05:04:05;;;;;;;2.95;1.17;;;;;;;10.21;100.00;100357.81;4954904;28;20050;-71
2022/09/18 05:06:43;;;;;;;3.40;1.50;;;;;;;10.23;100.00;100364.66;4954733;28;20043;-72
2022/09/18 05:09:08;;;;;;;2.58;1.10;;;;;;;10.22;100.00;100354.97;4954800;28;20447;-72
2022/09/18 05:11:35;;;;;;;1.38;1.25;;;;;;;10.22;100.00;100349.66;4948258;29;20028;-71
2022/09/18 05:14:00;;;;;;;2.60;1.15;;;;;;;10.20;100.00;100348.16;4955940;28;20047;-72
2022/09/18 05:16:28;;;;;;;3.33;1.48;;;;;;;10.20;100.00;100351.66;4968539;28;20063;-72
2022/09/18 05:19:13;;;;;;;5.97;1.63;;;;;;;10.23;100.00;100346.00;4955769;28;20053;-72
2022/09/18 05:21:38;;;;;;;3.97;1.10;;;;;;;10.25;100.00;100337.88;4938361;29;20126;-72
2022/09/18 05:24:06;;;;;;;2.72;1.02;;;;;;;10.25;100.00;100357.34;4954398;29;20039;-72
2022/09/18 05:26:31;;;;;;;2.17;1.23;;;;;;;10.28;100.00;100350.84;4954371;29;20062;-73
2022/09/18 05:28:57;;;;;;;5.60;1.52;;;;;;;10.22;100.00;100339.00;4953780;29;20039;-73
2022/09/18 05:31:22;;;;;;;3.72;1.40;;;;;;;10.29;100.00;100344.50;4943583;29;20043;-72
2022/09/18 05:33:48;;;;;;;4.82;1.35;;;;;;;10.31;100.00;100348.69;4903570;29;20392;-73
2022/09/18 05:36:14;;;;;;;2.13;1.45;;;;;;;10.31;100.00;100354.00;4950824;29;20043;-72
2022/09/18 05:38:40;;;;;;;3.95;1.15;;;;;;;10.33;100.00;100351.16;4950806;28;20050;-72
2022/09/18 05:41:08;;;;;;;1.13;0.98;;;;;;;10.31;100.00;100348.69;4950597;29;20410;-61
2022/09/18 05:43:33;;;;;;;3.90;1.48;;;;;;;10.35;99.49;100353.66;4950672;28;20054;-61
2022/09/18 05:46:00;;;;;;;1.15;1.05;;;;;;;10.31;99.62;100359.34;4936064;29;20130;-59
2022/09/18 05:48:37;;;;;;;1.42;1.13;;;;;;;10.35;99.48;100359.81;4950841;29;20120;-58
2022/09/18 05:51:03;;;;;;;4.63;1.00;;;;;;;10.38;99.61;100370.16;4934973;29;20130;-62
2022/09/18 05:53:28;;;;;;;2.05;1.50;;;;;;;10.40;99.19;100368.13;4936009;29;20042;-62
2022/09/18 05:56:07;;;;;;;2.55;1.20;;;;;;;10.45;98.65;100364.97;4950678;28;20443;-52
2022/09/18 05:58:33;;;;;;;2.15;0.82;;;;;;;10.46;97.78;100372.78;4935772;29;20039;-55
2022/09/18 06:01:01;;;;;;;1.50;1.13;;;;;;;10.47;98.30;100370.94;4950201;29;20036;-62
2022/09/18 06:03:36;;;;;;;1.08;0.85;;;;;;;10.51;97.52;100366.97;4950561;29;20043;-62
2022/09/18 06:06:02;;;;;;;2.45;1.38;;;;;;;10.53;97.03;100378.25;4934433;29;20058;-60
2022/09/18 06:08:27;;;;;;;1.00;0.90;;;;;;;10.54;96.70;100380.75;4950717;29;20034;-61
2022/09/18 06:10:53;;;;;;;1.50;1.08;;;;;;;10.56;97.11;100384.09;4949901;29;20176;-62
2022/09/18 06:13:19;;;;;;;2.53;0.93;;;;;;;10.64;96.49;100385.06;4934277;29;20094;-61
2022/09/18 06:15:53;;;;;;;2.78;1.00;;;;;;;10.65;96.79;100384.06;4951480;28;20036;-62
2022/09/18 06:18:33;;;;;;;5.90;1.77;;;;;;;10.66;96.22;100388.41;4952342;29;20055;-62
2022/09/18 06:21:00;;;;;;;4.00;1.63;;;;;;;10.73;95.40;100384.03;4952312;29;20506;-62
2022/09/18 06:23:28;;;;;;;3.63;1.65;;;;;;;10.75;95.03;100396.19;4952848;29;20526;-62
2022/09/18 06:26:05;;;;;;;5.38;2.63;;;;;;;10.78;95.27;100403.03;4969047;28;20034;-60
2022/09/18 06:28:33;;;;;;;4.10;1.48;;;;;;;10.81;95.61;100403.50;4968887;28;20039;-62
2022/09/18 06:31:02;;;;;;;2.00;1.27;;;;;;;10.87;95.30;100412.66;4951855;28;20039;-60
2022/09/18 06:33:35;;;;;;;2.42;1.40;;;;;;;10.85;95.33;100412.00;4937701;29;20042;-61
2022/09/18 06:36:05;;;;;;;5.40;1.55;;;;;;;10.88;93.94;100411.63;4937585;29;20090;-62
2022/09/18 06:38:38;;;;;;;4.35;1.75;;;;;;;10.89;93.76;100413.31;4952864;29;20042;-60
2022/09/18 06:41:04;;;;;;;1.90;1.30;;;;;;;10.90;94.55;100412.31;4952022;29;20043;-62
2022/09/18 06:43:41;;;;;;;5.60;2.03;;;;;;;10.91;94.17;100405.97;4952866;29;20063;-59
2022/09/18 06:46:25;;;;;;;1.65;1.20;;;;;;;10.88;93.33;100406.31;4953796;28;20130;-62
2022/09/18 06:48:52;;;;;;;2.53;1.23;;;;;;;10.91;93.75;100408.66;4968546;28;20130;-62
2022/09/18 06:51:18;;;;;;;3.70;0.95;;;;;;;10.97;94.04;100409.78;4967688;28;20130;-61
2022/09/18 06:54:05;;;;;;;1.83;1.10;;;;;;;10.93;93.06;100397.81;4954116;28;20049;-61
2022/09/18 06:56:31;;;;;;;5.32;1.70;;;;;;;11.00;93.04;100402.28;4952532;28;20498;-61
2022/09/18 06:58:57;;;;;;;3.10;1.23;;;;;;;11.06;93.59;100406.09;4968500;28;20383;-62
2022/09/18 07:01:22;;;;;;;1.05;0.95;;;;;;;11.04;93.27;100392.94;4966915;28;20031;-63
2022/09/18 07:03:52;;;;;;;3.38;1.30;;;;;;;11.12;92.28;100405.41;4968789;28;20462;-63
2022/09/18 07:06:25;;;;;;;4.43;1.73;;;;;;;11.19;92.55;100402.88;4953774;28;20118;-62
2022/09/18 07:08:52;;;;;;;3.00;1.40;;;;;;;11.19;92.55;100409.03;4953676;29;20068;-63
2022/09/18 07:11:35;;;;;;;2.83;1.58;;;;;;;11.24;91.15;100404.00;4967526;28;20387;-62
2022/09/18 07:14:05;;;;;;;2.13;1.08;;;;;;;11.32;91.82;100408.47;4968520;28;20066;-62
2022/09/18 07:16:30;;;;;;;1.27;0.95;;;;;;;11.34;91.03;100415.28;4952252;28;20187;-63
2022/09/18 07:18:56;;;;;;;1.60;0.90;;;;;;;11.33;91.07;100413.63;4968535;28;20494;-64
2022/09/18 07:21:23;;;;;;;2.13;1.30;;;;;;;11.26;91.07;100410.00;4953125;29;20072;-63
2022/09/18 07:23:49;;;;;;;1.23;1.10;;;;;;;11.29;91.27;100412.34;4952768;29;20039;-62
2022/09/18 07:26:14;;;;;;;2.22;1.33;;;;;;;11.29;92.03;100416.84;4968154;28;20049;-63
2022/09/18 07:28:40;;;;;;;1.77;1.23;;;;;;;11.23;90.69;100409.53;4953918;28;20047;-63
2022/09/18 07:31:15;;;;;;;5.10;1.10;;;;;;;11.27;90.46;100413.50;4951438;29;20057;-63
2022/09/18 07:33:42;;;;;;;3.80;1.47;;;;;;;11.29;90.38;100407.00;4952164;29;20043;-62
2022/09/18 07:36:14;;;;;;;9.98;1.45;;;;;;;11.31;90.67;100420.16;4952239;28;20550;-64
2022/09/18 07:38:41;;;;;;;1.63;1.35;;;;;;;11.28;90.02;100416.00;4953621;28;20071;-63
2022/09/18 07:41:06;;;;;;;1.95;1.45;;;;;;;11.41;89.84;100415.44;4951045;29;20069;-63
2022/09/18 07:43:32;;;;;;;1.90;1.08;;;;;;;11.49;89.41;100412.72;4953079;28;20729;-61
2022/09/18 07:45:59;;;;;;;24.33;6.60;;;;;;;11.61;89.00;100418.50;4953252;28;20038;-61
2022/09/18 07:48:28;;;;;;;3.78;1.33;;;;;;;11.69;88.50;100419.28;4952081;29;20047;-61
2022/09/18 07:50:57;;;;;;;4.70;2.30;;;;;;;11.75;88.22;100417.75;4950842;29;20035;-66
2022/09/18 07:53:24;;;;;;;2.67;1.75;;;;;;;11.81;86.93;100413.59;4968012;28;20075;-63
2022/09/18 07:55:54;;;;;;;6.85;2.00;;;;;;;11.86;87.44;100424.53;4967889;28;20414;-63
2022/09/18 07:58:22;;;;;;;1.65;1.25;;;;;;;11.90;87.84;100424.00;4968047;28;20414;-64
2022/09/18 08:00:50;;;;;;;6.45;1.55;;;;;;;11.97;87.58;100431.31;4952869;29;20127;-63
2022/09/18 08:03:17;;;;;;;3.35;1.65;;;;;;;12.03;86.27;100434.09;4951799;29;20031;-62
2022/09/18 08:05:54;;;;;;;4.95;1.92;;;;;;;12.06;86.50;100439.09;4967992;28;20050;-63
2022/09/18 08:08:19;;;;;;;2.92;1.60;;;;;;;12.06;87.20;100444.44;4951763;29;20031;-63
2022/09/18 08:10:55;;;;;;;3.33;1.20;;;;;;;12.05;86.21;100445.41;4952791;29;20039;-62
2022/09/18 08:13:55;;;;;;;1.05;0.80;;;;;;;12.03;85.29;100443.94;4953443;28;20134;-62
2022/09/18 08:16:37;;;;;;;2.50;1.00;;;;;;;11.96;85.41;100454.50;4953455;29;20122;-63
2022/09/18 08:19:23;;;;;;;1.83;0.93;;;;;;;11.90;86.03;100450.69;4971683;28;20043;-64
2022/09/18 08:22:00;;;;;;;2.97;1.45;;;;;;;11.84;86.71;100450.56;4971334;28;20062;-63
2022/09/18 08:24:25;;;;;;;1.35;0.88;;;;;;;11.84;87.23;100447.91;4955441;29;20422;-63
2022/09/18 08:26:52;;;;;;;1.63;1.17;;;;;;;11.93;87.10;100446.84;4971440;28;20047;-62
2022/09/18 08:29:18;;;;;;;4.00;1.60;;;;;;;11.91;86.99;100448.88;4955282;28;20039;-63
2022/09/18 08:31:48;;;;;;;5.80;1.10;;;;;;;11.87;87.03;100453.75;4970959;28;20307;-63
2022/09/18 08:34:15;;;;;;;1.33;1.08;;;;;;;11.90;86.82;100452.53;4956527;28;20039;-63
2022/09/18 08:36:40;;;;;;;2.28;0.98;;;;;;;11.87;88.55;100458.25;4971107;28;20207;-63
2022/09/18 08:39:14;;;;;;;2.60;1.10;;;;;;;11.78;87.89;100451.25;4955209;29;20039;-64
2022/09/18 08:42:21;;;;;;;2.53;1.50;;;;;;;11.81;87.38;100443.78;4945975;29;20126;-64
2022/09/18 08:45:06;;;;;;;1.85;1.02;;;;;;;11.85;87.72;100434.38;4955016;29;20145;-63
2022/09/18 08:47:51;;;;;;;4.40;1.10;;;;;;;11.92;87.25;100431.84;4955121;28;20617;-64
2022/09/18 08:50:25;;;;;;;6.32;1.75;;;;;;;12.05;86.95;100433.91;4954654;29;20406;-61
2022/09/18 08:53:01;;;;;;;5.75;1.10;;;;;;;12.20;86.35;100427.63;4954838;28;20042;-61
2022/09/18 08:55:43;;;;;;;2.08;1.20;;;;;;;12.41;85.10;100420.78;4954737;29;20122;-61
2022/09/18 08:58:36;;;;;;;1.73;0.93;;;;;;;12.68;84.05;100420.19;4955887;28;20046;-60
2022/09/18 09:01:08;;;;;;;5.07;1.20;;;;;;;12.87;82.98;100412.63;4954546;28;20070;-62
2022/09/18 09:03:50;;;;;;;1.02;0.77;;;;;;;12.98;81.78;100415.69;4954769;29;20039;-60
2022/09/18 09:06:24;;;;;;;1.83;1.17;;;;;;;13.12;80.52;100403.31;4970682;28;20438;-61
2022/09/18 09:09:18;;;;;;;3.08;1.25;;;;;;;13.29;79.66;100411.97;4954478;29;20031;-63
2022/09/18 09:12:03;;;;;;;2.75;0.95;;;;;;;13.37;79.08;100414.56;4954142;28;20487;-61
2022/09/18 09:14:35;;;;;;;5.20;1.00;;;;;;;13.51;78.93;100412.88;4954528;29;20415;-57
2022/09/18 09:17:01;;;;;;;2.47;0.60;;;;;;;13.57;79.21;100414.81;4954313;29;20035;-60
2022/09/18 09:19:38;;;;;;;2.05;0.90;;;;;;;13.65;78.53;100411.19;4954507;29;20125;-61
2022/09/18 09:22:28;;;;;;;5.45;1.15;;;;;;;13.78;77.19;100409.47;4970163;28;20459;-60
2022/09/18 09:25:17;;;;;;;1.02;0.77;;;;;;;13.90;78.21;100415.16;4969452;28;20114;-61
2022/09/18 09:28:19;;;;;;;0.82;0.82;;;;;;;13.97;77.68;100404.50;4954254;28;20122;-63
2022/09/18 09:31:09;;;;;;;1.08;0.55;;;;;;;13.76;76.53;100402.66;4954037;29;20035;-61
2022/09/18 09:34:10;;;;;;;2.08;0.90;;;;;;;13.81;75.74;100402.91;4955613;29;20130;-60
2022/09/18 09:36:56;;;;;;;0.50;0.50;;;;;;;14.03;76.27;100414.47;4970147;28;20037;-63
2022/09/18 09:39:29;;;;;;;1.52;0.80;;;;;;;14.25;76.03;100407.22;4954189;28;20067;-60
2022/09/18 09:41:55;;;;;;;1.75;0.60;;;;;;;14.53;73.20;100404.59;4953918;28;20534;-63
2022/09/18 09:44:29;;;;;;;2.42;0.90;;;;;;;14.71;76.08;100391.53;4953912;28;20050;-60
2022/09/18 09:47:22;;;;;;;0.77;0.50;;;;;;;14.86;73.41;100394.91;4970041;28;20102;-61
2022/09/18 09:50:09;;;;;;;1.85;0.80;;;;;;;15.09;73.57;100393.81;4970285;28;20035;-60
2022/09/18 09:52:42;;;;;;;1.75;0.80;;;;;;;15.25;74.42;100396.13;4969617;28;20043;-61
2022/09/18 09:55:13;;;;;;;1.23;0.80;;;;;;;15.57;72.76;100396.47;4969865;28;20125;-63
2022/09/18 09:57:48;;;;;;;4.57;0.73;;;;;;;16.16;73.30;100395.78;4953795;28;20114;-61
2022/09/18 10:00:18;;;;;;;3.17;0.90;;;;;;;16.36;68.69;100399.28;4953267;29;20043;-61
2022/09/18 10:03:03;;;;;;;0.95;0.65;;;;;;;16.19;64.56;100395.38;4970005;28;20110;-64
2022/09/18 10:05:53;;;;;;;0.60;0.60;;;;;;;16.26;65.71;100396.19;4953557;28;20154;-63
2022/09/18 10:08:50;;;;;;;0.65;0.65;;;;;;;16.17;67.60;100392.03;4969620;28;20042;-63
2022/09/18 10:11:17;;;;;;;0.93;0.60;;;;;;;16.43;63.87;100396.59;4912924;29;20470;-63
2022/09/18 10:13:59;;;;;;;2.80;1.58;;;;;;;16.62;63.03;100386.84;4953420;28;20498;-61
2022/09/18 10:16:32;;;;;;;1.30;0.77;;;;;;;16.78;62.04;100381.09;4954528;28;20036;-63
2022/09/18 10:18:59;;;;;;;1.08;0.73;;;;;;;16.85;63.26;100383.75;4954625;28;20398;-62
2022/09/18 10:21:28;;;;;;;1.05;0.70;;;;;;;17.04;60.90;100375.63;4953027;29;20088;-61
2022/09/18 10:24:23;;;;;;;1.73;0.77;;;;;;;17.25;59.36;100373.69;4953203;28;20470;-61
2022/09/18 10:26:56;;;;;;;0.95;0.60;;;;;;;17.52;62.58;100366.28;4953258;29;20060;-62
2022/09/18 10:29:21;;;;;;;1.10;0.60;;;;;;;17.60;59.25;100355.25;4953292;29;20039;-62
2022/09/18 10:31:57;;;;;;;2.70;0.70;;;;;;;17.56;57.65;100359.44;4969390;28;20047;-63
2022/09/18 10:34:34;;;;;;;1.85;0.70;;;;;;;17.27;57.84;100356.25;4969086;28;20094;-62
2022/09/18 10:37:00;;;;;;;1.75;0.68;;;;;;;17.14;56.46;100359.00;4952771;28;20082;-63
2022/09/18 10:39:31;;;;;;;1.23;0.70;;;;;;;17.44;58.90;100350.41;4952962;29;20043;-63
2022/09/18 10:42:06;;;;;;;2.45;0.68;;;;;;;17.51;57.98;100357.38;4952766;29;20039;-63
2022/09/18 10:44:35;;;;;;;0.25;0.25;;;;;;;17.68;58.83;100346.13;4968802;28;20051;-63
2022/09/18 10:47:18;;;;;;;1.45;0.80;;;;;;;17.80;55.36;100355.16;4968796;28;20579;-62
2022/09/18 10:49:56;;;;;;;3.20;0.60;;;;;;;18.01;55.24;100354.00;4954273;29;20610;-63
2022/09/18 10:52:35;;;;;;;1.02;0.65;;;;;;;17.93;55.82;100355.09;4968567;28;20045;-62
2022/09/18 10:55:23;;;;;;;0.47;0.40;;;;;;;18.05;53.32;100349.81;4968726;28;20077;-62
2022/09/18 10:57:57;;;;;;;3.17;0.80;;;;;;;17.98;53.10;100347.16;4952759;28;20407;-63
2022/09/18 11:00:23;;;;;;;0.40;0.40;;;;;;;17.77;52.57;100347.53;4952428;28;20125;-59
2022/09/18 11:03:03;;;;;;;0.60;0.45;;;;;;;17.67;54.25;100344.44;4952608;28;20027;-62
2022/09/18 11:05:46;;;;;;;0.50;0.32;;;;;;;17.54;54.91;100346.19;4952526;29;20031;-63
2022/09/18 11:08:15;;;;;;;1.23;0.50;;;;;;;17.73;55.83;100338.22;4952514;29;20051;-63
2022/09/18 11:10:57;;;;;;;3.72;0.77;;;;;;;17.81;52.53;100335.28;4952200;29;20043;-61
2022/09/18 11:13:26;;;;;;;2.35;0.70;;;;;;;17.99;53.04;100332.63;4968347;28;20031;-63
2022/09/18 11:15:55;;;;;;;0.85;0.30;;;;;;;18.26;50.58;100327.88;4951879;28;20172;-63
2022/09/18 11:18:22;;;;;;;1.20;0.60;;;;;;;18.21;51.89;100324.19;4967545;28;20040;-63
2022/09/18 11:20:49;;;;;;;;;;;;;;;18.39;50.62;100324.22;4951879;29;20447;-63
2022/09/18 11:23:18;;;;;;;1.50;0.75;;;;;;;18.96;49.02;100312.19;4967617;28;20266;-63
2022/09/18 11:25:45;;;;;;;5.05;1.95;;;;;;;19.31;50.34;100319.66;4951520;29;20042;-61
2022/09/18 11:28:26;;;;;;;0.55;0.40;;;;;;;19.47;46.26;100321.69;4967685;28;20106;-63
2022/09/18 11:31:12;;;;;;;0.60;0.47;;;;;;;19.16;48.37;100320.03;4967233;28;20433;-63
2022/09/18 11:33:43;;;;;;;1.42;0.55;;;;;;;18.26;47.92;100329.75;4951417;29;20027;-62
2022/09/18 11:36:11;;;;;;;0.68;0.50;;;;;;;17.59;51.59;100326.69;4951290;28;20134;-63
2022/09/18 11:38:45;;;;;;;3.53;0.60;;;;;;;17.23;51.68;100330.00;4967546;28;20080;-63
2022/09/18 11:41:12;;;;;;;0.43;0.43;;;;;;;17.01;51.80;100324.91;4951031;29;20568;-62
2022/09/18 11:43:43;;;;;;;1.98;0.82;;;;;;;16.79;54.70;100310.09;4967336;28;20028;-62
2022/09/18 11:46:53;;;;;;;1.20;0.55;;;;;;;16.44;54.06;100307.69;4967223;28;20042;-62
2022/09/18 11:49:26;;;;;;;0.75;0.70;;;;;;;16.26;54.88;100318.25;4858693;29;20041;-63
2022/09/18 11:51:58;;;;;;;0.47;0.40;;;;;;;16.13;55.92;100315.59;4938487;29;20110;-63
2022/09/18 11:54:53;;;;;;;2.13;0.70;;;;;;;16.02;57.63;100323.22;4967248;28;20530;-63
2022/09/18 11:57:29;;;;;;;1.10;0.60;;;;;;;15.89;56.84;100322.41;4951217;28;20035;-61
2022/09/18 12:00:08;;;;;;;0.77;0.38;;;;;;;15.67;58.27;100313.72;4950996;29;20042;-62
2022/09/18 12:02:56;;;;;;;0.43;0.43;;;;;;;15.50;57.23;100317.78;4952247;28;20031;-62
2022/09/18 12:05:37;;;;;;;1.73;0.65;;;;;;;15.66;57.28;100312.06;4967010;28;20039;-61
2022/09/18 12:08:16;;;;;;;0.28;0.28;;;;;;;15.64;58.85;100309.56;4967058;28;20502;-62
2022/09/18 12:11:01;;;;;;;0.63;0.43;;;;;;;15.71;57.63;100314.94;4950630;29;20498;-60
2022/09/18 12:13:45;;;;;;;1.48;0.75;;;;;;;15.92;57.55;100305.88;4952176;29;20050;-62
2022/09/18 12:16:30;;;;;;;0.70;0.45;;;;;;;16.10;55.21;100298.00;4930951;28;1066871;-61
2022/09/18 12:19:13;;;;;;;1.98;0.43;;;;;;;16.26;55.45;100297.59;4967828;28;20031;-63
2022/09/18 12:21:56;;;;;;;1.48;0.47;;;;;;;16.24;54.72;100288.09;4951350;29;20027;-63
2022/09/18 12:24:22;;;;;;;1.20;0.70;;;;;;;16.11;53.61;100278.19;4967696;28;20043;-62
2022/09/18 12:27:03;;;;;;;0.52;0.50;;;;;;;15.89;55.36;100288.31;4967537;28;20035;-62
2022/09/18 12:29:51;;;;;;;0.80;0.60;;;;;;;15.86;54.53;100286.03;4951485;28;20031;-62
2022/09/18 12:32:46;;;;;;;4.00;2.00;;;;;;;16.12;56.73;100277.16;4952502;28;20043;-59
2022/09/18 12:35:29;;;;;;;0.40;0.40;;;;;;;16.49;53.93;100278.28;4952629;29;20077;-62
2022/09/18 12:38:12;;;;;;;0.63;0.63;;;;;;;17.34;54.18;100279.00;4953082;29;20031;-61
2022/09/18 12:41:00;;;;;;;1.67;0.70;;;;;;;17.87;51.85;100283.22;4952497;29;20114;-62
2022/09/18 12:43:40;;;;;;;1.90;0.50;;;;;;;17.36;51.99;100278.78;4952801;28;20147;-62
2022/09/18 12:46:42;;;;;;;0.40;0.32;;;;;;;17.26;53.09;100276.56;4952601;29;20031;-62
2022/09/18 12:49:19;;;;;;;2.05;0.73;;;;;;;16.48;54.92;100276.66;4952756;28;20066;-62
2022/09/18 12:52:00;;;;;;;0.63;0.47;;;;;;;16.35;55.35;100282.06;4950988;29;20043;-62
2022/09/18 12:54:31;;;;;;;1.85;0.43;;;;;;;15.95;53.88;100273.22;4952731;29;20102;-61
2022/09/18 12:57:33;;;;;;;0.73;0.30;;;;;;;16.01;55.50;100277.75;4952620;29;20375;-63
2022/09/18 13:00:08;;;;;;;1.20;0.50;;;;;;;15.67;57.39;100281.50;4968516;28;20507;-63
2022/09/18 13:02:46;;;;;;;1.35;0.60;;;;;;;15.68;57.61;100277.78;4955971;28;20031;-62
2022/09/18 13:05:27;;;;;;;1.38;0.38;;;;;;;15.57;55.32;100273.78;4955904;29;20043;-62
2022/09/18 13:08:04;;;;;;;1.75;0.47;;;;;;;15.54;56.15;100284.94;4956040;28;20035;-63
2022/09/18 13:10:38;;;;;;;1.20;0.70;;;;;;;15.54;58.29;100278.75;4955663;28;20067;-62
2022/09/18 13:13:15;;;;;;;1.25;0.82;;;;;;;15.64;58.08;100279.19;4955721;29;20093;-61
2022/09/18 13:16:04;;;;;;;0.93;0.50;;;;;;;15.63;59.07;100278.38;4955704;28;20380;-62
2022/09/18 13:18:52;;;;;;;0.80;0.47;;;;;;;15.54;58.62;100262.66;4970550;28;20054;-63
2022/09/18 13:21:28;;;;;;;0.50;0.50;;;;;;;15.53;58.06;100255.63;4955370;29;20427;-63
2022/09/18 13:23:55;;;;;;;0.75;0.40;;;;;;;15.57;58.90;100262.22;4955897;29;20447;-63
2022/09/18 13:26:23;;;;;;;0.65;0.45;;;;;;;15.48;56.40;100256.25;4955655;29;20575;-61
2022/09/18 13:28:49;;;;;;;0.70;0.60;;;;;;;15.51;55.82;100263.03;4955648;28;20422;-63
2022/09/18 13:31:20;;;;;;;0.57;0.45;;;;;;;15.51;57.36;100257.69;4955194;28;20051;-61
2022/09/18 13:33:53;;;;;;;0.73;0.52;;;;;;;15.42;55.61;100252.50;4955438;28;20050;-62
2022/09/18 13:36:29;;;;;;;0.73;0.60;;;;;;;15.48;56.37;100238.28;4955665;28;20126;-61
2022/09/18 13:38:59;;;;;;;1.35;0.57;;;;;;;15.43;56.06;100245.28;4955323;29;20050;-62
2022/09/18 13:41:26;;;;;;;0.55;0.45;;;;;;;15.41;57.05;100236.63;4955515;28;20039;-63
2022/09/18 13:43:57;;;;;;;1.88;0.55;;;;;;;15.42;56.01;100238.28;4955528;29;20050;-63
2022/09/18 13:46:40;;;;;;;0.65;0.47;;;;;;;15.34;57.43;100231.25;4955150;28;20039;-62
2022/09/18 13:49:18;;;;;;;0.73;0.50;;;;;;;15.41;56.63;100231.25;4953982;28;20039;-61
2022/09/18 13:51:43;;;;;;;1.25;0.50;;;;;;;15.44;58.61;100238.88;4954842;29;20078;-62
2022/09/18 13:54:28;;;;;;;0.40;0.40;;;;;;;15.44;57.58;100226.28;4955100;29;20054;-62
2022/09/18 13:57:03;;;;;;;1.27;0.90;;;;;;;15.48;58.04;100221.34;4954917;28;20066;-62
2022/09/18 13:59:43;;;;;;;0.55;0.50;;;;;;;15.43;57.73;100215.75;4955055;28;20549;-63
2022/09/18 14:02:30;;;;;;;1.33;0.70;;;;;;;15.41;60.00;100221.34;4954612;28;20067;-63
2022/09/18 14:04:59;;;;;;;1.08;0.88;;;;;;;15.34;58.38;100217.81;4954815;28;20407;-63
2022/09/18 14:07:24;;;;;;;0.65;0.60;;;;;;;15.40;57.96;100211.66;4954708;28;20050;-62
2022/09/18 14:09:57;;;;;;;1.38;0.60;;;;;;;15.32;57.96;100217.22;4954716;28;20035;-62
2022/09/18 14:12:23;;;;;;;0.55;0.38;;;;;;;15.25;58.03;100226.25;4954316;29;20031;-60
2022/09/18 14:15:23;;;;;;;2.58;1.23;;;;;;;15.31;58.39;100210.16;4954808;28;20084;-60
2022/09/18 14:18:16;;;;;;;1.42;0.80;;;;;;;15.19;58.07;100206.44;4954739;28;20114;-63
2022/09/18 14:20:49;;;;;;;0.93;0.50;;;;;;;15.17;58.65;100203.97;4952976;29;20088;-61
2022/09/18 14:23:33;;;;;;;0.70;0.50;;;;;;;15.09;57.24;100200.66;4954536;29;20081;-61
2022/09/18 14:25:59;;;;;;;0.47;0.45;;;;;;;15.12;57.59;100194.88;4954349;29;20035;-63
2022/09/18 14:28:26;;;;;;;1.30;0.60;;;;;;;15.12;57.21;100184.13;4953639;28;20039;-62
2022/09/18 14:31:13;;;;;;;0.97;0.70;;;;;;;15.10;57.75;100199.63;4934996;29;20498;-62
2022/09/18 14:33:39;;;;;;;1.85;0.77;;;;;;;15.11;58.37;100206.63;4935205;29;20306;-61
2022/09/18 14:36:06;;;;;;;0.38;0.32;;;;;;;15.04;58.69;100198.56;4934997;29;20048;-59
2022/09/18 14:38:31;;;;;;;1.10;0.55;;;;;;;15.05;58.58;100186.00;4934980;29;20110;-62
2022/09/18 14:41:07;;;;;;;0.50;0.50;;;;;;;15.04;57.82;100173.59;4949396;29;20458;-63
2022/09/18 14:43:37;;;;;;;0.98;0.47;;;;;;;15.08;59.56;100177.56;4934977;29;20040;-61
2022/09/18 14:46:04;;;;;;;1.55;0.73;;;;;;;15.05;59.73;100184.13;4949810;29;20071;-61
2022/09/18 14:48:36;;;;;;;0.63;0.50;;;;;;;15.07;60.24;100173.22;4935103;29;20024;-59
2022/09/18 14:51:15;;;;;;;1.40;0.57;;;;;;;15.00;59.67;100180.44;4934508;29;20036;-60
2022/09/18 14:53:43;;;;;;;0.25;0.25;;;;;;;14.96;56.70;100173.81;4934829;29;20407;-58
2022/09/18 14:56:14;;;;;;;0.68;0.35;;;;;;;14.90;58.11;100176.28;4934814;29;20078;-56
2022/09/18 14:58:45;;;;;;;0.70;0.60;;;;;;;14.93;56.97;100170.53;4934733;29;20106;-63
2022/09/18 15:01:39;;;;;;;0.20;0.20;;;;;;;14.87;57.90;100159.78;4934359;29;20515;-59
2022/09/18 15:04:11;;;;;;;0.57;0.50;;;;;;;14.79;57.32;100162.63;4934728;29;20047;-61
2022/09/18 15:06:38;;;;;;;0.52;0.40;;;;;;;14.81;56.28;100150.69;4934560;29;20082;-58
2022/09/18 15:09:06;;;;;;;3.15;0.68;;;;;;;14.81;55.91;100150.69;4934562;29;20040;-57
2022/09/18 15:11:33;;;;;;;2.72;0.65;;;;;;;14.76;57.99;100152.31;4934066;29;20042;-59
2022/09/18 15:13:58;;;;;;;0.30;0.20;;;;;;;14.79;56.66;100150.03;4934658;29;20040;-57
2022/09/18 15:16:24;;;;;;;1.00;0.65;;;;;;;14.80;57.90;100145.50;4934321;29;20414;-56
2022/09/18 15:18:49;;;;;;;0.95;0.30;;;;;;;14.83;57.32;100145.09;4934448;29;20055;-63
2022/09/18 15:21:25;;;;;;;0.63;0.43;;;;;;;14.90;56.94;100145.94;4934138;29;20091;-59
2022/09/18 15:23:51;;;;;;;1.95;0.40;;;;;;;14.78;56.70;100137.66;4934240;29;20488;-61
2022/09/18 15:26:18;;;;;;;0.88;0.57;;;;;;;14.77;57.82;100136.03;4934181;29;20047;-62
2022/09/18 15:28:47;;;;;;;0.93;0.52;;;;;;;14.76;56.00;100137.06;4934491;29;20054;-62
2022/09/18 15:31:16;;;;;;;0.65;0.40;;;;;;;14.77;57.11;100127.97;4933919;29;20091;-60
2022/09/18 15:33:53;;;;;;;0.30;0.22;;;;;;;14.80;55.34;100130.25;4934203;29;20098;-63
2022/09/18 15:36:25;;;;;;;0.65;0.60;;;;;;;14.81;55.53;100125.72;4934112;29;20063;-61
2022/09/18 15:38:52;;;;;;;3.30;0.40;;;;;;;14.79;56.37;100125.09;4934124;29;20051;-62
2022/09/18 15:41:26;;;;;;;0.75;0.50;;;;;;;14.82;56.86;100122.84;4933875;29;20031;-58
2022/09/18 15:43:52;;;;;;;0.55;0.50;;;;;;;14.81;56.34;100123.88;4948787;29;20043;-60
2022/09/18 15:46:30;;;;;;;0.93;0.30;;;;;;;14.81;55.51;100131.09;4948698;29;20503;-58
2022/09/18 15:48:59;;;;;;;1.00;0.35;;;;;;;14.80;55.24;100127.59;4948679;29;20035;-61
2022/09/18 15:51:34;;;;;;;3.03;0.60;;;;;;;14.84;55.62;100117.25;4933890;29;20035;-63
2022/09/18 15:54:09;;;;;;;0.40;0.28;;;;;;;14.84;55.24;100125.31;4934023;29;20040;-63
2022/09/18 15:56:38;;;;;;;0.52;0.30;;;;;;;14.86;56.36;100110.66;4933996;29;20035;-63
2022/09/18 15:59:06;;;;;;;0.88;0.38;;;;;;;14.82;55.82;100108.59;4934003;29;20501;-61
2022/09/18 16:01:35;;;;;;;1.17;0.60;;;;;;;14.83;56.23;100111.06;4933636;29;20043;-63
2022/09/18 16:04:13;;;;;;;2.42;0.70;;;;;;;14.86;55.84;100110.66;4933903;29;20044;-61
2022/09/18 16:06:47;;;;;;;0.80;0.40;;;;;;;14.82;55.51;100112.09;4948569;28;20035;-61
2022/09/18 16:09:23;;;;;;;1.60;0.90;;;;;;;14.83;55.67;100110.25;4933924;29;20178;-61